Terminal Aerodrome Forecast
Issued by NWS

Home | Current Version | Previous Version | Text Only | Print | Product List | Glossary Off
Versions: 1 2 3 4 5 6 7 8 9 10 11 12 13 14 15 16 17 18 19 20 21 22 23

000
FTUS43 KGRB 231600 AAA
TAFCWA
TAF AMD
KCWA 231603Z 2316/2412 16007KT 1/4SM -DZ FG OVC002
      TEMPO 2316/2318 1SM -DZ BR OVC004
     FM231800 15006KT 1SM -RA BR OVC004
     FM232200 14005KT 1SM -RA BR OVC003
     FM240600 32007KT 2SM -RA BR OVC004=

USA.gov is the U.S. government's official web portal to all federal, state and local government web resources and services.